createdAt,value
2018-12-13T00:00:21.946Z,1015.41
2018-12-13T00:01:21.926Z,1015.42
2018-12-13T00:02:21.922Z,1015.4
2018-12-13T00:03:21.886Z,1015.39
2018-12-13T00:04:21.858Z,1015.41
2018-12-13T00:05:21.836Z,1015.36
2018-12-13T00:06:21.814Z,1015.36
2018-12-13T00:07:21.791Z,1015.35
2018-12-13T00:08:21.769Z,1015.41
2018-12-13T00:09:21.749Z,1015.36
2018-12-13T00:10:21.724Z,1015.33
2018-12-13T00:11:21.734Z,1015.36
2018-12-13T00:12:21.681Z,1015.36
2018-12-13T00:13:21.657Z,1015.32
2018-12-13T00:14:21.637Z,1015.31
2018-12-13T00:15:21.614Z,1015.25
2018-12-13T00:16:21.592Z,1015.27
2018-12-13T00:17:21.571Z,1015.28
2018-12-13T00:18:21.551Z,1015.26
2018-12-13T00:19:21.526Z,1015.24
2018-12-13T00:20:21.506Z,1015.29
2018-12-13T00:21:21.482Z,1015.26
2018-12-13T00:22:21.463Z,1015.25
2018-12-13T00:23:21.439Z,1015.23
2018-12-13T00:24:21.420Z,1015.27
2018-12-13T00:25:21.397Z,1015.22
2018-12-13T00:26:21.371Z,1015.25
2018-12-13T00:27:21.351Z,1015.27
2018-12-13T00:28:21.326Z,1015.25
2018-12-13T00:29:21.303Z,1015.26
2018-12-13T00:30:21.292Z,1015.31
2018-12-13T00:31:21.261Z,1015.27
2018-12-13T00:32:21.241Z,1015.28
2018-12-13T00:33:21.220Z,1015.25
2018-12-13T00:34:21.198Z,1015.24
2018-12-13T00:35:21.173Z,1015.2
2018-12-13T00:36:21.153Z,1015.17
2018-12-13T00:37:21.128Z,1015.12
2018-12-13T00:38:21.107Z,1015.15
2018-12-13T00:39:21.086Z,1015.12
2018-12-13T00:40:21.062Z,1015.12
2018-12-13T00:41:21.039Z,1015.11
2018-12-13T00:42:21.024Z,1015.15
2018-12-13T00:43:20.995Z,1015.13
2018-12-13T00:44:20.977Z,1015.14
2018-12-13T00:45:20.950Z,1015.12
2018-12-13T00:46:20.928Z,1015.11
2018-12-13T00:47:20.908Z,1015.07
2018-12-13T00:48:20.885Z,1015.11
2018-12-13T00:49:20.861Z,1015.13
2018-12-13T00:50:20.840Z,1015.12
2018-12-13T00:51:20.817Z,1015.12
2018-12-13T00:52:20.799Z,1015.1
2018-12-13T00:53:20.771Z,1015.12
2018-12-13T00:54:20.760Z,1015.11
2018-12-13T00:55:20.738Z,1015.12
2018-12-13T00:56:20.706Z,1015.17
2018-12-13T00:57:20.686Z,1015.15
2018-12-13T00:58:20.664Z,1015.18
2018-12-13T00:59:20.640Z,1015.14
2018-12-13T01:00:20.618Z,1015.16
2018-12-13T01:01:20.595Z,1015.14
2018-12-13T01:02:20.575Z,1015.12
2018-12-13T01:03:20.554Z,1015.12
2018-12-13T01:04:20.529Z,1015.11
2018-12-13T01:05:20.511Z,1015.12
2018-12-13T01:06:20.484Z,1015.12
2018-12-13T01:07:20.464Z,1015.14
2018-12-13T01:08:20.441Z,1015.09
2018-12-13T01:09:20.418Z,1015.06
2018-12-13T01:10:20.397Z,1015.09
2018-12-13T01:11:20.377Z,1015.06
2018-12-13T01:12:20.352Z,1015.07
2018-12-13T01:13:20.330Z,1015.07
2018-12-13T01:14:20.310Z,1015.01
2018-12-13T01:15:20.290Z,1015.05
2018-12-13T01:16:20.264Z,1015.04
2018-12-13T01:17:20.246Z,1015.03
2018-12-13T01:18:20.220Z,1015
2018-12-13T01:19:20.200Z,1014.98
2018-12-13T01:20:20.177Z,1015.01
2018-12-13T01:21:20.710Z,1014.99
2018-12-13T01:22:20.132Z,1014.96
2018-12-13T01:23:20.110Z,1014.97
2018-12-13T01:24:20.091Z,1015
2018-12-13T01:25:20.066Z,1014.97
2018-12-13T01:26:20.044Z,1014.95
2018-12-13T01:27:20.025Z,1014.95
2018-12-13T01:28:20.000Z,1014.97
2018-12-13T01:29:19.981Z,1014.91
2018-12-13T01:30:19.956Z,1014.93
2018-12-13T01:31:19.932Z,1014.91
2018-12-13T01:32:19.912Z,1014.94
2018-12-13T01:33:19.891Z,1014.9
2018-12-13T01:34:19.869Z,1014.89
2018-12-13T01:35:19.846Z,1014.85
2018-12-13T01:36:19.825Z,1014.86
2018-12-13T01:37:19.804Z,1014.85
2018-12-13T01:38:19.988Z,1014.87
2018-12-13T01:39:19.757Z,1014.86
2018-12-13T01:40:19.744Z,1014.91
2018-12-13T01:41:19.713Z,1014.92
2018-12-13T01:42:19.692Z,1014.9
2018-12-13T01:43:19.668Z,1014.94
2018-12-13T01:44:19.648Z,1014.89
2018-12-13T01:45:19.627Z,1014.89
2018-12-13T01:46:19.602Z,1014.95
2018-12-13T01:47:19.581Z,1014.88
2018-12-13T01:48:19.560Z,1014.88
2018-12-13T01:49:19.538Z,1014.84
2018-12-13T01:50:19.522Z,1014.85
2018-12-13T01:51:19.494Z,1014.81
2018-12-13T01:52:19.474Z,1014.81
2018-12-13T01:53:19.448Z,1014.8
2018-12-13T01:54:19.430Z,1014.77
2018-12-13T01:55:19.413Z,1014.8
2018-12-13T01:56:19.383Z,1014.79
2018-12-13T01:57:19.361Z,1014.83
2018-12-13T01:58:19.337Z,1014.78
2018-12-13T01:59:19.318Z,1014.79
2018-12-13T02:00:19.300Z,1014.8
2018-12-13T02:01:19.275Z,1014.8
2018-12-13T02:02:19.251Z,1014.81
2018-12-13T02:03:19.226Z,1014.79
2018-12-13T02:04:19.204Z,1014.81
2018-12-13T02:05:19.184Z,1014.79
2018-12-13T02:06:19.162Z,1014.77
2018-12-13T02:07:19.135Z,1014.76
2018-12-13T02:08:19.113Z,1014.74
2018-12-13T02:09:19.091Z,1014.74
2018-12-13T02:10:19.069Z,1014.71
2018-12-13T02:11:19.047Z,1014.74
2018-12-13T02:12:19.024Z,1014.76
2018-12-13T02:13:19.002Z,1014.7
2018-12-13T02:14:18.979Z,1014.76
2018-12-13T02:15:18.956Z,1014.78
2018-12-13T02:16:18.932Z,1014.77
2018-12-13T02:17:18.912Z,1014.81
2018-12-13T02:18:18.886Z,1014.84
2018-12-13T02:19:18.865Z,1014.79
2018-12-13T02:20:18.842Z,1014.83
2018-12-13T02:21:18.821Z,1014.78
2018-12-13T02:22:18.797Z,1014.76
2018-12-13T02:23:18.773Z,1014.78
2018-12-13T02:24:18.750Z,1014.82
2018-12-13T02:25:18.732Z,1014.81
2018-12-13T02:26:18.705Z,1014.77
2018-12-13T02:27:18.683Z,1014.76
2018-12-13T02:28:18.666Z,1014.73
2018-12-13T02:29:18.638Z,1014.74
2018-12-13T02:30:18.617Z,1014.69
2018-12-13T02:31:18.592Z,1014.67
2018-12-13T02:32:18.571Z,1014.63
2018-12-13T02:33:18.546Z,1014.64
2018-12-13T02:34:18.526Z,1014.62
2018-12-13T02:35:18.503Z,1014.57
2018-12-13T02:36:18.479Z,1014.59
2018-12-13T02:37:18.454Z,1014.56
2018-12-13T02:38:18.433Z,1014.54
2018-12-13T02:39:18.410Z,1014.57
2018-12-13T02:40:18.387Z,1014.55
2018-12-13T02:41:18.363Z,1014.56
2018-12-13T02:42:18.345Z,1014.51
2018-12-13T02:43:18.317Z,1014.52
2018-12-13T02:44:18.297Z,1014.48
2018-12-13T02:45:18.270Z,1014.48
2018-12-13T02:46:18.248Z,1014.49
2018-12-13T02:47:18.227Z,1014.51
2018-12-13T02:48:18.203Z,1014.45
2018-12-13T02:49:18.180Z,1014.48
2018-12-13T02:50:18.160Z,1014.44
2018-12-13T02:51:18.132Z,1014.41
2018-12-13T02:52:18.109Z,1014.37
2018-12-13T02:53:18.087Z,1014.41
2018-12-13T02:54:18.066Z,1014.4
2018-12-13T02:55:18.051Z,1014.34
2018-12-13T02:56:18.019Z,1014.33
2018-12-13T02:57:17.997Z,1014.35
2018-12-13T02:58:17.973Z,1014.4
2018-12-13T02:59:17.950Z,1014.37
2018-12-13T03:00:17.927Z,1014.41
2018-12-13T03:01:17.904Z,1014.41
2018-12-13T03:02:17.880Z,1014.4
2018-12-13T03:03:17.859Z,1014.39
2018-12-13T03:04:17.841Z,1014.34
2018-12-13T03:05:17.811Z,1014.34
2018-12-13T03:06:17.790Z,1014.35
2018-12-13T03:07:17.763Z,1014.37
2018-12-13T03:08:17.745Z,1014.36
2018-12-13T03:09:17.720Z,1014.36
2018-12-13T03:10:17.697Z,1014.35
2018-12-13T03:11:17.671Z,1014.37
2018-12-13T03:12:17.649Z,1014.35
2018-12-13T03:13:17.625Z,1014.35
2018-12-13T03:14:17.603Z,1014.39
2018-12-13T03:15:17.579Z,1014.4
2018-12-13T03:16:17.557Z,1014.38
2018-12-13T03:17:17.534Z,1014.38
2018-12-13T03:18:17.508Z,1014.4
2018-12-13T03:19:17.486Z,1014.43
2018-12-13T03:20:17.466Z,1014.38
2018-12-13T03:21:17.439Z,1014.41
2018-12-13T03:22:17.416Z,1014.41
2018-12-13T03:23:17.393Z,1014.35
2018-12-13T03:24:17.369Z,1014.39
2018-12-13T03:25:17.355Z,1014.29
2018-12-13T03:26:17.325Z,1014.34
2018-12-13T03:27:17.300Z,1014.28
2018-12-13T03:28:17.275Z,1014.25
2018-12-13T03:29:17.252Z,1014.29
2018-12-13T03:30:17.231Z,1014.31
2018-12-13T03:31:17.212Z,1014.29
2018-12-13T03:32:17.197Z,1014.3
2018-12-13T03:33:17.166Z,1014.29
2018-12-13T03:34:17.138Z,1014.22
2018-12-13T03:35:17.117Z,1014.27
2018-12-13T03:36:17.090Z,1014.22
2018-12-13T03:37:20.478Z,1014.26
2018-12-13T03:38:17.251Z,1014.22
2018-12-13T03:39:17.026Z,1014.21
2018-12-13T03:40:16.996Z,1014.2
2018-12-13T03:41:16.974Z,1014.23
2018-12-13T03:42:16.951Z,1014.17
2018-12-13T03:43:16.929Z,1014.19
2018-12-13T03:44:16.904Z,1014.19
2018-12-13T03:45:16.885Z,1014.14
2018-12-13T03:46:16.860Z,1014.08
2018-12-13T03:47:16.836Z,1014.11
2018-12-13T03:48:16.813Z,1014.12
2018-12-13T03:49:16.787Z,1014.09
2018-12-13T03:50:16.763Z,1014.14
2018-12-13T03:51:16.740Z,1014.04
2018-12-13T03:52:16.717Z,1014.05
2018-12-13T03:53:16.691Z,1014.09
2018-12-13T03:54:16.670Z,1014.08
2018-12-13T03:55:16.646Z,1014.08
2018-12-13T03:56:16.622Z,1014.06
2018-12-13T03:57:16.599Z,1014.05
2018-12-13T03:58:16.579Z,1014.11
2018-12-13T03:59:16.553Z,1014.12
2018-12-13T04:00:16.530Z,1014.14
2018-12-13T04:01:16.505Z,1014.14
2018-12-13T04:02:16.485Z,1014.1
2018-12-13T04:03:16.464Z,1014.14
2018-12-13T04:04:16.435Z,1014.15
2018-12-13T04:05:16.416Z,1014.11
2018-12-13T04:06:16.390Z,1014.14
2018-12-13T04:07:16.364Z,1014.1
2018-12-13T04:08:16.339Z,1014.08
2018-12-13T04:09:16.319Z,1014.09
2018-12-13T04:10:16.298Z,1014.12
2018-12-13T04:11:16.272Z,1014.07
2018-12-13T04:12:16.251Z,1014.08
2018-12-13T04:13:16.222Z,1014.05
2018-12-13T04:14:16.202Z,1014.01
2018-12-13T04:15:16.180Z,1013.98
2018-12-13T04:16:16.153Z,1014.02
2018-12-13T04:17:16.129Z,1013.99
2018-12-13T04:18:16.108Z,1014
2018-12-13T04:19:16.085Z,1014.01
2018-12-13T04:20:16.059Z,1014
2018-12-13T04:21:16.035Z,1014.06
2018-12-13T04:22:16.013Z,1014
2018-12-13T04:23:15.987Z,1013.95
2018-12-13T04:24:15.996Z,1013.98
2018-12-13T04:25:15.941Z,1013.94
2018-12-13T04:26:15.923Z,1013.96
2018-12-13T04:27:15.894Z,1013.94
2018-12-13T04:28:15.875Z,1013.94
2018-12-13T04:29:15.848Z,1013.94
2018-12-13T04:30:15.826Z,1013.95
2018-12-13T04:31:15.802Z,1013.94
2018-12-13T04:32:15.780Z,1013.92
2018-12-13T04:33:15.769Z,1013.88
2018-12-13T04:34:15.732Z,1013.88
2018-12-13T04:35:15.708Z,1013.82
2018-12-13T04:36:15.687Z,1013.86
2018-12-13T04:37:15.686Z,1013.85
2018-12-13T04:38:15.636Z,1013.85
2018-12-13T04:39:15.610Z,1013.83
2018-12-13T04:40:15.590Z,1013.85
2018-12-13T04:41:15.563Z,1013.84
2018-12-13T04:42:15.542Z,1013.87
2018-12-13T04:43:15.516Z,1013.88
2018-12-13T04:44:15.497Z,1013.83
2018-12-13T04:45:15.470Z,1013.84
2018-12-13T04:46:15.445Z,1013.84
2018-12-13T04:47:15.425Z,1013.84
2018-12-13T04:48:15.398Z,1013.84
2018-12-13T04:49:15.375Z,1013.76
2018-12-13T04:50:15.352Z,1013.79
2018-12-13T04:51:15.328Z,1013.76
2018-12-13T04:52:15.303Z,1013.76
2018-12-13T04:53:15.282Z,1013.78
2018-12-13T04:54:15.257Z,1013.74
2018-12-13T04:55:15.236Z,1013.72
2018-12-13T04:56:15.208Z,1013.73
2018-12-13T04:57:15.185Z,1013.68
2018-12-13T04:58:15.163Z,1013.71
2018-12-13T04:59:15.140Z,1013.73
2018-12-13T05:00:15.115Z,1013.74
2018-12-13T05:01:15.092Z,1013.73
2018-12-13T05:02:15.068Z,1013.72
2018-12-13T05:03:15.041Z,1013.75
2018-12-13T05:04:15.023Z,1013.79
2018-12-13T05:05:14.996Z,1013.74
2018-12-13T05:06:14.972Z,1013.74
2018-12-13T05:07:14.950Z,1013.71
2018-12-13T05:08:14.926Z,1013.75
2018-12-13T05:09:14.903Z,1013.74
2018-12-13T05:10:14.880Z,1013.77
2018-12-13T05:11:14.858Z,1013.69
2018-12-13T05:12:14.831Z,1013.7
2018-12-13T05:13:14.808Z,1013.71
2018-12-13T05:14:14.785Z,1013.73
2018-12-13T05:15:14.760Z,1013.72
2018-12-13T05:16:14.738Z,1013.72
2018-12-13T05:17:14.720Z,1013.66
2018-12-13T05:18:14.689Z,1013.64
2018-12-13T05:19:14.665Z,1013.66
2018-12-13T05:20:14.642Z,1013.66
2018-12-13T05:21:14.620Z,1013.66
2018-12-13T05:22:14.599Z,1013.67
2018-12-13T05:23:14.575Z,1013.66
2018-12-13T05:24:14.545Z,1013.65
2018-12-13T05:25:14.524Z,1013.68
2018-12-13T05:26:14.502Z,1013.69
2018-12-13T05:27:14.474Z,1013.68
2018-12-13T05:28:14.452Z,1013.65
2018-12-13T05:29:14.459Z,1013.67
2018-12-13T05:30:14.416Z,1013.67
2018-12-13T05:31:14.382Z,1013.64
2018-12-13T05:32:14.356Z,1013.65
2018-12-13T05:33:14.335Z,1013.61
2018-12-13T05:34:14.310Z,1013.63
2018-12-13T05:35:14.286Z,1013.66
2018-12-13T05:36:14.261Z,1013.64
2018-12-13T05:37:14.238Z,1013.63
2018-12-13T05:38:14.418Z,1013.63
2018-12-13T05:39:14.190Z,1013.61
2018-12-13T05:40:14.166Z,1013.62
2018-12-13T05:41:14.147Z,1013.61
2018-12-13T05:42:14.120Z,1013.57
2018-12-13T05:43:14.096Z,1013.54
2018-12-13T05:44:14.071Z,1013.55
2018-12-13T05:45:14.048Z,1013.61
2018-12-13T05:46:14.025Z,1013.54
2018-12-13T05:47:14.003Z,1013.57
2018-12-13T05:48:13.977Z,1013.55
2018-12-13T05:49:13.953Z,1013.58
2018-12-13T05:50:13.928Z,1013.56
2018-12-13T05:51:13.904Z,1013.57
2018-12-13T05:52:13.882Z,1013.56
2018-12-13T05:53:13.858Z,1013.53
2018-12-13T05:54:13.854Z,1013.54
2018-12-13T05:55:13.812Z,1013.56
2018-12-13T05:56:13.786Z,1013.55
2018-12-13T05:57:13.763Z,1013.57
2018-12-13T05:58:13.744Z,1013.57
2018-12-13T05:59:13.719Z,1013.61
2018-12-13T06:00:13.691Z,1013.6
2018-12-13T06:01:13.670Z,1013.61
2018-12-13T06:02:13.642Z,1013.58
2018-12-13T06:03:13.619Z,1013.6
2018-12-13T06:04:13.597Z,1013.63
2018-12-13T06:05:13.573Z,1013.63
2018-12-13T06:06:13.547Z,1013.59
2018-12-13T06:07:13.523Z,1013.6
2018-12-13T06:08:13.502Z,1013.6
2018-12-13T06:09:13.516Z,1013.63
2018-12-13T06:10:13.452Z,1013.65
2018-12-13T06:11:13.432Z,1013.64
2018-12-13T06:12:13.407Z,1013.63
2018-12-13T06:13:13.382Z,1013.66
2018-12-13T06:14:13.357Z,1013.68
2018-12-13T06:15:13.387Z,1013.62
2018-12-13T06:16:13.439Z,1013.63
2018-12-13T06:17:13.358Z,1013.66
2018-12-13T06:18:13.655Z,1013.63
2018-12-13T06:19:13.250Z,1013.67
2018-12-13T06:20:13.436Z,1013.62
2018-12-13T06:21:13.192Z,1013.66
2018-12-13T06:22:13.168Z,1013.66
2018-12-13T06:23:13.142Z,1013.68
2018-12-13T06:24:13.117Z,1013.68
2018-12-13T06:25:13.108Z,1013.7
2018-12-13T06:26:13.076Z,1013.69
2018-12-13T06:27:13.045Z,1013.7
2018-12-13T06:28:13.035Z,1013.66
2018-12-13T06:29:13.006Z,1013.69
2018-12-13T06:30:12.981Z,1013.72
2018-12-13T06:31:12.952Z,1013.75
2018-12-13T06:32:12.926Z,1013.75
2018-12-13T06:33:12.905Z,1013.76
2018-12-13T06:34:12.887Z,1013.8
2018-12-13T06:35:12.858Z,1013.78
2018-12-13T06:36:12.833Z,1013.82
2018-12-13T06:37:12.818Z,1013.82
2018-12-13T06:38:12.786Z,1013.81
2018-12-13T06:39:12.768Z,1013.86
2018-12-13T06:40:15.523Z,1013.82
2018-12-13T06:41:12.718Z,1013.84
2018-12-13T06:42:12.695Z,1013.89
2018-12-13T06:43:12.674Z,1013.87
2018-12-13T06:44:12.641Z,1013.85
2018-12-13T06:45:12.618Z,1013.88
2018-12-13T06:46:12.593Z,1013.91
2018-12-13T06:47:12.576Z,1013.9
2018-12-13T06:48:12.546Z,1013.94
2018-12-13T06:49:12.521Z,1013.97
2018-12-13T06:50:12.499Z,1014.01
2018-12-13T06:51:12.472Z,1013.99
2018-12-13T06:52:12.451Z,1013.97
2018-12-13T06:53:12.426Z,1013.95
2018-12-13T06:54:12.401Z,1014
2018-12-13T06:55:12.378Z,1013.97
2018-12-13T06:56:12.352Z,1014.02
2018-12-13T06:57:12.330Z,1014.01
2018-12-13T06:58:12.305Z,1014.03
2018-12-13T06:59:12.282Z,1013.99
2018-12-13T07:00:12.258Z,1013.99
2018-12-13T07:01:12.234Z,1013.97
2018-12-13T07:02:12.208Z,1013.97
2018-12-13T07:03:12.186Z,1013.97
2018-12-13T07:04:12.172Z,1013.96
2018-12-13T07:05:12.138Z,1013.96
2018-12-13T07:06:12.114Z,1013.94
2018-12-13T07:07:12.087Z,1013.98
2018-12-13T07:08:12.064Z,1014.02
2018-12-13T07:09:12.041Z,1014
2018-12-13T07:10:12.020Z,1014.01
2018-12-13T07:11:11.994Z,1014
2018-12-13T07:12:11.967Z,1013.96
2018-12-13T07:13:11.949Z,1014
2018-12-13T07:14:11.922Z,1014.02
2018-12-13T07:15:11.899Z,1014.02
2018-12-13T07:16:11.875Z,1014.05
2018-12-13T07:17:11.851Z,1014.02
2018-12-13T07:18:11.825Z,1014.01
2018-12-13T07:19:11.801Z,1014
2018-12-13T07:20:11.776Z,1014
2018-12-13T07:21:11.752Z,1014.01
2018-12-13T07:22:11.728Z,1014.06
2018-12-13T07:23:11.708Z,1014.02
2018-12-13T07:24:11.682Z,1014.03
2018-12-13T07:25:11.659Z,1014.01
2018-12-13T07:26:11.631Z,1014.01
2018-12-13T07:27:11.605Z,1014.03
2018-12-13T07:28:11.582Z,1013.97
2018-12-13T07:29:11.557Z,1013.97
2018-12-13T07:30:11.535Z,1014.05
2018-12-13T07:31:11.510Z,1014.05
2018-12-13T07:32:11.488Z,1014.05
2018-12-13T07:33:11.464Z,1014.04
2018-12-13T07:34:11.437Z,1014.07
2018-12-13T07:35:11.418Z,1014.07
2018-12-13T07:36:11.539Z,1014.09
2018-12-13T07:37:11.364Z,1014.11
2018-12-13T07:38:14.331Z,1014.1
2018-12-13T07:39:11.323Z,1014.09
2018-12-13T07:40:11.294Z,1014.11
2018-12-13T07:41:11.268Z,1014.09
2018-12-13T07:42:11.246Z,1014.06
2018-12-13T07:43:11.221Z,1014.04
2018-12-13T07:44:11.198Z,1014.06
2018-12-13T07:45:11.174Z,1014.08
2018-12-13T07:46:11.151Z,1014.08
2018-12-13T07:47:11.124Z,1014.07
2018-12-13T07:48:11.101Z,1014.1
2018-12-13T07:49:11.078Z,1014.16
2018-12-13T07:50:11.053Z,1014.17
2018-12-13T07:51:11.029Z,1014.13
2018-12-13T07:52:11.006Z,1014.13
2018-12-13T07:53:10.981Z,1014.12
2018-12-13T07:54:10.958Z,1014.17
2018-12-13T07:55:10.934Z,1014.12
2018-12-13T07:56:10.911Z,1014.17
2018-12-13T07:57:10.884Z,1014.19
2018-12-13T07:58:10.866Z,1014.19
2018-12-13T07:59:10.837Z,1014.2
2018-12-13T08:00:10.810Z,1014.18
2018-12-13T08:01:10.788Z,1014.2
2018-12-13T08:02:10.769Z,1014.18
2018-12-13T08:03:10.739Z,1014.14
2018-12-13T08:04:10.717Z,1014.12
2018-12-13T08:05:10.691Z,1014.11
2018-12-13T08:06:10.666Z,1014.13
2018-12-13T08:07:10.645Z,1014.13
2018-12-13T08:08:10.620Z,1014.11
2018-12-13T08:09:10.611Z,1014.1
2018-12-13T08:10:10.578Z,1014.09
2018-12-13T08:11:10.546Z,1014.12
2018-12-13T08:12:10.523Z,1014.12
2018-12-13T08:13:10.498Z,1014.09
2018-12-13T08:14:10.476Z,1014.08
2018-12-13T08:15:10.451Z,1014.11
2018-12-13T08:16:10.427Z,1014.13
2018-12-13T08:17:10.402Z,1014.07
2018-12-13T08:18:10.380Z,1014.06
2018-12-13T08:19:10.354Z,1014.12
2018-12-13T08:20:10.330Z,1014.12
2018-12-13T08:21:10.308Z,1014.09
2018-12-13T08:22:10.289Z,1014.12
2018-12-13T08:23:10.260Z,1014.09
2018-12-13T08:24:10.236Z,1014.12
2018-12-13T08:25:10.212Z,1014.12
2018-12-13T08:26:10.190Z,1014.1
2018-12-13T08:27:10.162Z,1014.11
2018-12-13T08:28:10.144Z,1014.11
2018-12-13T08:29:10.114Z,1014.19
2018-12-13T08:30:10.093Z,1014.16
2018-12-13T08:31:10.067Z,1014.11
2018-12-13T08:32:10.045Z,1014.13
2018-12-13T08:33:10.020Z,1014.22
2018-12-13T08:34:10.004Z,1014.21
2018-12-13T08:35:09.971Z,1014.2
2018-12-13T08:36:09.950Z,1014.22
2018-12-13T08:37:09.928Z,1014.16
2018-12-13T08:38:09.901Z,1014.14
2018-12-13T08:39:10.032Z,1014.07
2018-12-13T08:40:09.858Z,1014.11
2018-12-13T08:41:09.829Z,1014.1
2018-12-13T08:42:09.810Z,1014.08
2018-12-13T08:43:09.781Z,1014.04
2018-12-13T08:44:09.763Z,1014.09
2018-12-13T08:45:09.735Z,1014.05
2018-12-13T08:46:09.709Z,1014.05
2018-12-13T08:47:09.686Z,1014.06
2018-12-13T08:48:09.666Z,1014.1
2018-12-13T08:49:09.640Z,1014.06
2018-12-13T08:50:09.615Z,1014.07
2018-12-13T08:51:09.600Z,1014.12
2018-12-13T08:52:09.573Z,1014.08
2018-12-13T08:53:09.545Z,1014.05
2018-12-13T08:54:09.522Z,1014.1
2018-12-13T08:55:09.500Z,1014.1
2018-12-13T08:56:09.472Z,1014.09
2018-12-13T08:57:09.449Z,1014.06
2018-12-13T08:58:09.425Z,1014.1
2018-12-13T08:59:09.403Z,1014.04
2018-12-13T09:00:09.379Z,1014.04
2018-12-13T09:01:09.352Z,1014.07
2018-12-13T09:02:09.333Z,1014.06
2018-12-13T09:03:09.308Z,1014.02
2018-12-13T09:04:09.282Z,1014.04
2018-12-13T09:05:09.259Z,1014.03
2018-12-13T09:06:09.236Z,1014.03
2018-12-13T09:07:09.212Z,1014.03
2018-12-13T09:08:09.189Z,1014.01
2018-12-13T09:09:09.167Z,1013.99
2018-12-13T09:10:10.407Z,1014
2018-12-13T09:11:09.155Z,1014.01
2018-12-13T09:12:09.096Z,1014.02
2018-12-13T09:13:09.069Z,1014.06
2018-12-13T09:14:09.048Z,1014.04
2018-12-13T09:15:09.023Z,1014.04
2018-12-13T09:16:08.999Z,1014.02
2018-12-13T09:17:08.977Z,1014.03
2018-12-13T09:18:08.952Z,1014.03
2018-12-13T09:19:08.929Z,1014.08
2018-12-13T09:20:08.906Z,1014.08
2018-12-13T09:21:08.883Z,1014.13
2018-12-13T09:22:08.859Z,1014.12
2018-12-13T09:23:08.835Z,1014.09
2018-12-13T09:24:08.815Z,1014.08
2018-12-13T09:25:08.788Z,1014.06
2018-12-13T09:26:08.764Z,1014.07
2018-12-13T09:27:08.746Z,1014.07
2018-12-13T09:28:08.718Z,1014.07
2018-12-13T09:29:08.702Z,1014.1
2018-12-13T09:30:08.675Z,1014.08
2018-12-13T09:31:08.648Z,1014.08
2018-12-13T09:32:08.628Z,1014.1
2018-12-13T09:33:08.602Z,1014.16
2018-12-13T09:34:08.587Z,1014.12
2018-12-13T09:35:08.554Z,1014.13
2018-12-13T09:36:08.534Z,1014.19
2018-12-13T09:37:08.509Z,1014.18
2018-12-13T09:38:08.689Z,1014.17
2018-12-13T09:39:08.462Z,1014.19
2018-12-13T09:40:08.441Z,1014.18
2018-12-13T09:41:08.416Z,1014.15
2018-12-13T09:42:08.395Z,1014.15
2018-12-13T09:43:08.371Z,1014.17
2018-12-13T09:44:08.412Z,1014.18
2018-12-13T09:45:08.337Z,1014.18
2018-12-13T09:46:08.301Z,1014.15
2018-12-13T09:47:08.279Z,1014.2
2018-12-13T09:48:08.257Z,1014.16
2018-12-13T09:49:08.235Z,1014.18
2018-12-13T09:50:08.215Z,1014.19
2018-12-13T09:51:08.189Z,1014.25
2018-12-13T09:52:08.166Z,1014.3
2018-12-13T09:53:08.151Z,1014.24
2018-12-13T09:54:08.131Z,1014.25
2018-12-13T09:55:08.100Z,1014.27
2018-12-13T09:56:08.077Z,1014.2
2018-12-13T09:57:08.056Z,1014.21
2018-12-13T09:58:08.035Z,1014.27
2018-12-13T09:59:08.015Z,1014.27
2018-12-13T10:00:07.997Z,1014.23
2018-12-13T10:01:07.975Z,1014.23
2018-12-13T10:02:07.950Z,1014.24
2018-12-13T10:03:07.927Z,1014.22
2018-12-13T10:04:07.909Z,1014.2
2018-12-13T10:05:07.887Z,1014.18
2018-12-13T10:06:07.864Z,1014.19
2018-12-13T10:07:07.846Z,1014.14
2018-12-13T10:08:07.826Z,1014.12
2018-12-13T10:09:07.806Z,1014.19
2018-12-13T10:10:07.784Z,1014.18
2018-12-13T10:11:07.767Z,1014.17
2018-12-13T10:12:07.753Z,1014.22
2018-12-13T10:13:07.724Z,1014.21
2018-12-13T10:14:07.703Z,1014.2
2018-12-13T10:15:07.686Z,1014.21
2018-12-13T10:16:07.665Z,1014.19
2018-12-13T10:17:07.646Z,1014.19
2018-12-13T10:18:07.627Z,1014.17
2018-12-13T10:19:07.609Z,1014.15
2018-12-13T10:20:07.588Z,1014.17
2018-12-13T10:21:07.571Z,1014.1
2018-12-13T10:22:11.575Z,1014.14
2018-12-13T10:23:07.530Z,1014.11
2018-12-13T10:24:07.510Z,1014.11
2018-12-13T10:25:07.493Z,1014.07
2018-12-13T10:26:07.476Z,1014.05
2018-12-13T10:27:07.452Z,1014.05
2018-12-13T10:28:07.433Z,1014.06
2018-12-13T10:29:07.419Z,1014.06
2018-12-13T10:30:07.396Z,1014.05
2018-12-13T10:31:07.380Z,1014.05
2018-12-13T10:32:07.359Z,1014.09
2018-12-13T10:33:07.340Z,1014.01
2018-12-13T10:34:07.325Z,1014.06
2018-12-13T10:35:11.211Z,1014.08
2018-12-13T10:36:07.288Z,1014.06
2018-12-13T10:37:07.271Z,1014.05
2018-12-13T10:38:07.249Z,1014.03
2018-12-13T10:39:07.231Z,1014.04
2018-12-13T10:40:07.212Z,1013.99
2018-12-13T10:41:07.196Z,1014.02
2018-12-13T10:42:07.182Z,1014.05
2018-12-13T10:43:07.162Z,1014.07
2018-12-13T10:44:07.141Z,1014.07
2018-12-13T10:45:07.130Z,1014.05
2018-12-13T10:46:07.104Z,1014.07
2018-12-13T10:47:07.086Z,1014.03
2018-12-13T10:48:07.068Z,1014.08
2018-12-13T10:49:07.052Z,1014.07
2018-12-13T10:50:07.032Z,1014.06
2018-12-13T10:51:07.016Z,1013.99
2018-12-13T10:52:06.995Z,1014.01
2018-12-13T10:53:06.978Z,1014.03
2018-12-13T10:54:06.960Z,1014.01
2018-12-13T10:55:06.963Z,1014.02
2018-12-13T10:56:06.925Z,1013.94
2018-12-13T10:57:06.905Z,1013.97
2018-12-13T10:58:06.894Z,1013.97
2018-12-13T10:59:06.874Z,1013.91
2018-12-13T11:00:06.855Z,1013.94
2018-12-13T11:01:06.834Z,1013.93
2018-12-13T11:02:06.816Z,1013.94
2018-12-13T11:03:06.800Z,1013.96
2018-12-13T11:04:06.781Z,1013.93
2018-12-13T11:05:06.763Z,1013.9
2018-12-13T11:06:06.750Z,1013.91
2018-12-13T11:07:06.728Z,1013.92
2018-12-13T11:08:06.709Z,1013.88
2018-12-13T11:09:06.693Z,1013.95
2018-12-13T11:10:06.673Z,1013.91
2018-12-13T11:11:06.863Z,1013.87
2018-12-13T11:12:06.636Z,1013.87
2018-12-13T11:13:06.618Z,1013.82
2018-12-13T11:14:06.602Z,1013.79
2018-12-13T11:15:06.588Z,1013.8
2018-12-13T11:16:06.564Z,1013.74
2018-12-13T11:17:06.549Z,1013.69
2018-12-13T11:18:06.531Z,1013.65
2018-12-13T11:19:06.512Z,1013.68
2018-12-13T11:20:06.495Z,1013.7
2018-12-13T11:21:06.476Z,1013.66
2018-12-13T11:22:06.462Z,1013.68
2018-12-13T11:23:06.442Z,1013.64
2018-12-13T11:24:06.426Z,1013.68
2018-12-13T11:25:06.408Z,1013.59
2018-12-13T11:26:06.388Z,1013.59
2018-12-13T11:27:06.380Z,1013.55
2018-12-13T11:28:06.355Z,1013.54
2018-12-13T11:29:06.341Z,1013.56
2018-12-13T11:30:06.320Z,1013.56
2018-12-13T11:31:06.306Z,1013.52
2018-12-13T11:32:06.295Z,1013.58
2018-12-13T11:33:06.276Z,1013.45
2018-12-13T11:34:06.254Z,1013.53
2018-12-13T11:35:06.235Z,1013.51
2018-12-13T11:36:06.222Z,1013.52
2018-12-13T11:37:06.202Z,1013.48
2018-12-13T11:38:06.191Z,1013.45
2018-12-13T11:39:06.173Z,1013.48
2018-12-13T11:40:06.159Z,1013.44
2018-12-13T11:41:06.138Z,1013.43
2018-12-13T11:42:06.121Z,1013.4
2018-12-13T11:43:06.100Z,1013.34
2018-12-13T11:44:06.085Z,1013.34
2018-12-13T11:45:06.068Z,1013.38
2018-12-13T11:46:06.050Z,1013.31
2018-12-13T11:47:06.035Z,1013.37
2018-12-13T11:48:06.018Z,1013.37
2018-12-13T11:49:11.896Z,1013.3
2018-12-13T11:50:05.986Z,1013.28
2018-12-13T11:51:05.966Z,1013.32
2018-12-13T11:52:05.953Z,1013.32
2018-12-13T11:53:05.935Z,1013.34
2018-12-13T11:54:05.917Z,1013.34
2018-12-13T11:55:05.952Z,1013.33
2018-12-13T11:56:05.883Z,1013.35
2018-12-13T11:57:05.870Z,1013.35
2018-12-13T11:58:05.858Z,1013.34
2018-12-13T11:59:05.834Z,1013.37
2018-12-13T12:00:05.817Z,1013.35
2018-12-13T12:01:05.802Z,1013.25
2018-12-13T12:02:05.788Z,1013.31
2018-12-13T12:03:05.773Z,1013.3
2018-12-13T12:04:05.757Z,1013.27
2018-12-13T12:05:05.742Z,1013.28
2018-12-13T12:06:05.725Z,1013.29
2018-12-13T12:07:05.714Z,1013.29
2018-12-13T12:08:05.696Z,1013.22